createdAt,value
2023-07-22T00:01:53.627Z,0.90
2023-07-22T00:04:21.217Z,1.05
2023-07-22T00:06:48.806Z,1.00
2023-07-22T00:09:16.453Z,1.10
2023-07-22T00:11:44.094Z,0.95
2023-07-22T00:14:11.805Z,1.20
2023-07-22T00:16:39.509Z,1.23
2023-07-22T00:19:08.529Z,1.17
2023-07-22T00:21:36.291Z,1.23
2023-07-22T00:24:06.009Z,0.85
2023-07-22T00:26:33.657Z,0.88
2023-07-22T00:29:01.279Z,0.90
2023-07-22T00:31:30.189Z,1.50
2023-07-22T00:33:57.901Z,1.10
2023-07-22T00:36:26.526Z,1.10
2023-07-22T00:38:54.400Z,1.10
2023-07-22T00:41:22.085Z,1.10
2023-07-22T00:43:49.766Z,1.07
2023-07-22T00:46:17.425Z,1.70
2023-07-22T00:48:45.542Z,1.00
2023-07-22T00:51:13.270Z,1.30
2023-07-22T00:53:40.913Z,1.20
2023-07-22T00:56:11.611Z,1.03
2023-07-22T00:58:39.325Z,1.20
2023-07-22T01:01:07.081Z,1.35
2023-07-22T01:03:34.934Z,1.20
2023-07-22T01:06:04.027Z,1.10
2023-07-22T01:08:31.672Z,1.60
2023-07-22T01:11:00.248Z,1.50
2023-07-22T01:13:28.207Z,1.80
2023-07-22T01:15:55.846Z,1.90
2023-07-22T01:18:23.638Z,2.22
2023-07-22T01:20:52.118Z,1.73
2023-07-22T01:23:19.928Z,1.45
2023-07-22T01:25:47.644Z,1.52
2023-07-22T01:28:15.289Z,1.40
2023-07-22T01:30:42.964Z,3.13
2023-07-22T01:33:10.866Z,3.60
2023-07-22T01:35:38.666Z,5.60
2023-07-22T01:38:06.581Z,1.80
2023-07-22T01:40:34.260Z,2.83
2023-07-22T01:43:02.234Z,1.73
2023-07-22T01:45:29.860Z,1.37
2023-07-22T01:47:57.585Z,1.63
2023-07-22T01:50:25.435Z,2.60
2023-07-22T01:52:53.401Z,2.47
2023-07-22T01:55:21.101Z,2.30
2023-07-22T01:57:49.294Z,3.20
2023-07-22T02:00:17.145Z,1.90
2023-07-22T02:02:44.980Z,1.40
2023-07-22T02:05:13.481Z,1.23
2023-07-22T02:07:41.285Z,1.95
2023-07-22T02:10:10.966Z,2.40
2023-07-22T02:12:38.627Z,2.03
2023-07-22T02:15:07.163Z,1.30
2023-07-22T02:17:39.090Z,2.13
2023-07-22T02:20:30.305Z,1.70
2023-07-22T02:22:58.021Z,2.00
2023-07-22T02:25:25.603Z,1.63
2023-07-22T02:27:53.267Z,1.73
2023-07-22T02:30:20.919Z,1.90
2023-07-22T02:32:48.881Z,2.05
2023-07-22T02:35:16.670Z,1.83
2023-07-22T02:37:44.293Z,3.13
2023-07-22T02:40:12.734Z,1.45
2023-07-22T02:42:41.381Z,2.17
2023-07-22T02:45:09.598Z,1.50
2023-07-22T02:47:37.483Z,1.40
2023-07-22T02:50:06.263Z,2.55
2023-07-22T02:52:34.368Z,1.92
2023-07-22T02:55:17.138Z,1.30
2023-07-22T02:57:44.752Z,2.10
2023-07-22T03:00:24.824Z,1.97
2023-07-22T03:02:54.433Z,1.30
2023-07-22T03:05:22.631Z,1.38
2023-07-22T03:07:50.289Z,1.30
2023-07-22T03:10:17.870Z,1.00
2023-07-22T03:12:46.742Z,1.10
2023-07-22T03:15:14.531Z,1.60
2023-07-22T03:17:45.573Z,1.30
2023-07-22T03:20:16.021Z,1.40
2023-07-22T03:22:44.225Z,1.35
2023-07-22T03:25:12.746Z,1.30
2023-07-22T03:27:41.026Z,1.20
2023-07-22T03:30:09.014Z,1.42
2023-07-22T03:32:36.814Z,1.45
2023-07-22T03:35:05.064Z,1.38
2023-07-22T03:37:33.895Z,1.10
2023-07-22T03:40:03.812Z,1.20
2023-07-22T03:42:31.845Z,1.23
2023-07-22T03:44:59.418Z,1.35
2023-07-22T03:47:27.168Z,1.45
2023-07-22T03:49:54.949Z,1.10
2023-07-22T03:52:22.911Z,1.30
2023-07-22T03:54:50.518Z,1.02
2023-07-22T03:57:18.181Z,1.30
2023-07-22T03:59:45.734Z,1.58
2023-07-22T04:02:13.341Z,1.23
2023-07-22T04:04:41.105Z,1.08
2023-07-22T04:07:09.551Z,1.20
2023-07-22T04:09:37.243Z,1.08
2023-07-22T04:12:05.127Z,0.98
2023-07-22T04:14:32.737Z,1.20
2023-07-22T04:17:00.640Z,1.40
2023-07-22T04:19:30.638Z,1.13
2023-07-22T04:21:59.565Z,1.00
2023-07-22T04:24:27.329Z,1.33
2023-07-22T04:26:55.244Z,0.77
2023-07-22T04:29:22.883Z,1.17
2023-07-22T04:31:50.664Z,1.20
2023-07-22T04:34:18.260Z,1.20
2023-07-22T04:36:45.816Z,0.90
2023-07-22T04:39:13.923Z,1.10
2023-07-22T04:41:41.651Z,1.17
2023-07-22T04:44:09.392Z,1.17
2023-07-22T04:46:37.133Z,1.05
2023-07-22T04:49:04.800Z,1.20
2023-07-22T04:51:33.234Z,0.87
2023-07-22T04:54:01.004Z,1.00
2023-07-22T04:56:29.175Z,1.20
2023-07-22T04:58:59.827Z,1.00
2023-07-22T05:01:27.616Z,1.20
2023-07-22T05:03:56.614Z,1.20
2023-07-22T05:06:25.562Z,1.10
2023-07-22T05:08:53.480Z,1.20
2023-07-22T05:11:21.238Z,0.95
2023-07-22T05:13:51.567Z,1.15
2023-07-22T05:16:19.618Z,1.00
2023-07-22T05:18:47.228Z,0.90
2023-07-22T05:21:14.870Z,1.20
2023-07-22T05:23:42.472Z,0.90
2023-07-22T05:26:10.233Z,0.90
2023-07-22T05:28:37.887Z,1.20
2023-07-22T05:31:05.771Z,0.98
2023-07-22T05:33:33.647Z,0.95
2023-07-22T05:36:01.319Z,1.20
2023-07-22T05:38:28.917Z,1.02
2023-07-22T05:40:56.652Z,1.20
2023-07-22T05:43:24.291Z,0.90
2023-07-22T05:45:51.890Z,1.10
2023-07-22T05:48:23.016Z,1.00
2023-07-22T05:50:50.936Z,0.95
2023-07-22T05:53:18.576Z,1.00
2023-07-22T05:55:46.241Z,0.80
2023-07-22T05:58:19.175Z,1.15
2023-07-22T06:00:47.991Z,1.10
2023-07-22T06:03:16.048Z,0.80
2023-07-22T06:05:43.661Z,1.00
2023-07-22T06:08:11.289Z,1.10
2023-07-22T06:10:39.413Z,0.95
2023-07-22T06:13:07.251Z,0.80
2023-07-22T06:15:35.018Z,1.70
2023-07-22T06:18:02.857Z,1.20
2023-07-22T06:20:31.122Z,1.02
2023-07-22T06:22:58.785Z,1.00
2023-07-22T06:25:26.644Z,1.00
2023-07-22T06:27:57.836Z,0.90
2023-07-22T06:30:28.679Z,0.90
2023-07-22T06:32:56.546Z,0.90
2023-07-22T06:35:24.138Z,1.05
2023-07-22T06:37:51.711Z,1.00
2023-07-22T06:40:19.669Z,0.90
2023-07-22T06:42:47.367Z,0.90
2023-07-22T06:45:18.411Z,1.00
2023-07-22T06:47:46.673Z,1.10
2023-07-22T06:50:14.505Z,1.20
2023-07-22T06:52:42.109Z,1.00
2023-07-22T06:55:10.520Z,0.90
2023-07-22T06:57:41.621Z,0.90
2023-07-22T07:00:11.286Z,0.70
2023-07-22T07:02:41.823Z,0.90
2023-07-22T07:05:09.630Z,1.20
2023-07-22T07:07:37.239Z,1.00
2023-07-22T07:10:05.168Z,0.80
2023-07-22T07:12:34.072Z,0.90
2023-07-22T07:15:01.756Z,0.98
2023-07-22T07:17:35.874Z,0.93
2023-07-22T07:20:06.871Z,0.90
2023-07-22T07:22:34.783Z,1.00
2023-07-22T07:25:03.656Z,1.00
2023-07-22T07:27:32.204Z,1.30
2023-07-22T07:29:59.849Z,1.10
2023-07-22T07:32:27.814Z,1.30
2023-07-22T07:34:55.510Z,0.68
2023-07-22T07:37:26.567Z,0.98
2023-07-22T07:39:54.318Z,1.05
2023-07-22T07:42:22.026Z,1.10
2023-07-22T07:44:49.856Z,0.90
2023-07-22T07:47:18.746Z,0.95
2023-07-22T07:49:46.938Z,1.00
2023-07-22T07:52:14.567Z,1.00
2023-07-22T07:54:42.225Z,0.95
2023-07-22T07:57:10.046Z,0.90
2023-07-22T07:59:39.619Z,0.90
2023-07-22T08:02:10.839Z,0.95
2023-07-22T08:04:38.847Z,0.77
2023-07-22T08:07:07.642Z,1.20
2023-07-22T08:09:35.380Z,0.90
2023-07-22T08:12:04.487Z,1.10
2023-07-22T08:14:32.191Z,0.90
2023-07-22T08:16:59.919Z,0.90
2023-07-22T08:19:30.014Z,0.95
2023-07-22T08:21:57.705Z,0.90
2023-07-22T08:24:25.360Z,0.85
2023-07-22T08:26:53.048Z,0.80
2023-07-22T08:29:21.101Z,0.93
2023-07-22T08:31:49.288Z,0.77
2023-07-22T08:34:17.000Z,1.03
2023-07-22T08:36:45.199Z,0.90
2023-07-22T08:39:13.013Z,0.70
2023-07-22T08:41:42.319Z,0.80
2023-07-22T08:44:12.183Z,0.50
2023-07-22T08:46:42.359Z,0.80
2023-07-22T08:49:11.245Z,0.80
2023-07-22T08:51:41.593Z,0.70
2023-07-22T08:54:12.351Z,0.63
2023-07-22T08:56:41.390Z,1.00
2023-07-22T08:59:09.327Z,0.77
2023-07-22T09:01:38.828Z,0.90
2023-07-22T09:04:06.963Z,0.80
2023-07-22T09:06:36.000Z,0.80
2023-07-22T09:09:09.174Z,0.80
2023-07-22T09:11:37.501Z,1.07
2023-07-22T09:14:06.203Z,0.80
2023-07-22T09:16:35.170Z,0.90
2023-07-22T09:19:05.449Z,0.85
2023-07-22T09:21:37.247Z,0.75
2023-07-22T09:24:25.415Z,1.00
2023-07-22T09:26:53.265Z,1.10
2023-07-22T09:29:37.638Z,1.10
2023-07-22T09:32:06.137Z,0.90
2023-07-22T09:34:33.992Z,0.88
2023-07-22T09:37:02.042Z,0.93
2023-07-22T09:39:29.799Z,1.33
2023-07-22T09:42:00.353Z,0.60
2023-07-22T09:44:33.724Z,1.02
2023-07-22T09:47:08.561Z,0.90
2023-07-22T09:49:42.440Z,0.90
2023-07-22T09:52:18.790Z,1.08
2023-07-22T09:54:50.993Z,1.05
2023-07-22T09:57:19.903Z,1.13
2023-07-22T09:59:53.657Z,0.80
2023-07-22T10:02:23.738Z,1.00
2023-07-22T10:04:53.642Z,0.85
2023-07-22T10:07:22.284Z,0.80
2023-07-22T10:09:50.919Z,1.20
2023-07-22T10:12:18.686Z,0.98
2023-07-22T10:14:47.481Z,1.17
2023-07-22T10:17:15.580Z,1.13
2023-07-22T10:19:43.591Z,0.80
2023-07-22T10:22:11.761Z,1.10
2023-07-22T10:24:43.165Z,1.10
2023-07-22T10:27:11.568Z,0.97
2023-07-22T10:29:40.239Z,1.33
2023-07-22T10:32:08.270Z,1.30
2023-07-22T10:34:35.916Z,1.30
2023-07-22T10:37:05.708Z,0.80
2023-07-22T10:39:33.705Z,1.10
2023-07-22T10:42:07.804Z,1.15
2023-07-22T10:44:40.117Z,1.42
2023-07-22T10:47:09.379Z,1.30
2023-07-22T10:49:49.651Z,1.10
2023-07-22T10:52:45.424Z,1.00
2023-07-22T10:55:20.517Z,1.10
2023-07-22T10:57:57.347Z,1.08
2023-07-22T11:00:31.306Z,1.13
2023-07-22T11:03:16.577Z,1.30
2023-07-22T11:05:57.383Z,1.00
2023-07-22T11:08:39.343Z,1.50
2023-07-22T11:11:07.766Z,1.08
2023-07-22T11:13:42.700Z,1.40
2023-07-22T11:16:14.141Z,1.38
2023-07-22T11:18:42.721Z,1.60
2023-07-22T11:21:14.299Z,1.75
2023-07-22T11:23:42.748Z,1.60
2023-07-22T11:26:11.451Z,1.40
2023-07-22T11:28:39.123Z,1.30
2023-07-22T11:31:07.001Z,1.53
2023-07-22T11:33:42.202Z,1.30
2023-07-22T11:36:10.341Z,1.23
2023-07-22T11:38:38.074Z,1.38
2023-07-22T11:41:06.131Z,1.40
2023-07-22T11:43:33.832Z,1.10
2023-07-22T11:46:01.578Z,1.20
2023-07-22T11:48:29.455Z,1.20
2023-07-22T11:51:00.684Z,0.80
2023-07-22T11:53:31.426Z,1.60
2023-07-22T11:55:59.382Z,1.20
2023-07-22T11:58:28.016Z,1.10
2023-07-22T12:01:11.514Z,1.20
2023-07-22T12:03:41.069Z,0.90
2023-07-22T12:06:09.026Z,0.98
2023-07-22T12:08:41.397Z,1.10
2023-07-22T12:11:10.020Z,1.00
2023-07-22T12:13:38.411Z,1.20
2023-07-22T12:16:07.723Z,1.10
2023-07-22T12:18:46.354Z,1.23
2023-07-22T12:21:17.592Z,1.10
2023-07-22T12:23:45.379Z,1.15
2023-07-22T12:26:13.489Z,1.20
2023-07-22T12:28:41.289Z,1.30
2023-07-22T12:31:10.932Z,1.30
2023-07-22T12:33:39.623Z,1.27
2023-07-22T12:36:07.547Z,1.38
2023-07-22T12:38:35.240Z,1.52
2023-07-22T12:41:02.992Z,1.60
2023-07-22T12:43:31.858Z,1.60
2023-07-22T12:45:59.722Z,1.40
2023-07-22T12:48:27.417Z,1.48
2023-07-22T12:50:57.804Z,1.80
2023-07-22T12:53:26.353Z,1.85
2023-07-22T12:55:54.033Z,1.40
2023-07-22T12:58:22.094Z,1.70
2023-07-22T13:00:49.769Z,1.50
2023-07-22T13:03:17.559Z,1.50
2023-07-22T13:05:49.183Z,2.63
2023-07-22T13:08:17.246Z,1.60
2023-07-22T13:10:46.489Z,3.20
2023-07-22T13:13:14.158Z,1.80
2023-07-22T13:15:41.835Z,1.95
2023-07-22T13:18:09.532Z,1.50
2023-07-22T13:20:37.340Z,1.30
2023-07-22T13:23:04.967Z,0.97
2023-07-22T13:25:32.624Z,0.90
2023-07-22T13:28:00.297Z,1.70
2023-07-22T13:30:29.047Z,1.60
2023-07-22T13:32:57.953Z,1.15
2023-07-22T13:35:25.767Z,2.30
2023-07-22T13:37:53.515Z,1.88
2023-07-22T13:40:21.282Z,2.45
2023-07-22T13:42:48.930Z,1.83
2023-07-22T13:45:16.662Z,2.92
2023-07-22T13:47:44.505Z,1.50
2023-07-22T13:50:12.412Z,1.67
2023-07-22T13:52:41.630Z,1.40
2023-07-22T13:55:09.737Z,2.25
2023-07-22T13:57:37.421Z,1.90
2023-07-22T14:00:09.898Z,1.60
2023-07-22T14:02:39.009Z,1.80
2023-07-22T14:05:09.146Z,1.42
2023-07-22T14:07:40.880Z,1.60
2023-07-22T14:10:10.451Z,1.67
2023-07-22T14:12:38.307Z,1.57
2023-07-22T14:15:06.439Z,1.40
2023-07-22T14:17:34.279Z,1.73
2023-07-22T14:20:02.316Z,1.25
2023-07-22T14:22:32.536Z,1.42
2023-07-22T14:25:00.339Z,1.90
2023-07-22T14:27:28.084Z,1.55
2023-07-22T14:29:55.787Z,1.63
2023-07-22T14:32:23.639Z,1.40
2023-07-22T14:34:51.821Z,1.70
2023-07-22T14:37:19.972Z,1.30
2023-07-22T14:39:47.734Z,1.30
2023-07-22T14:42:15.279Z,1.20
2023-07-22T14:44:42.977Z,1.30
2023-07-22T14:47:10.914Z,1.15
2023-07-22T14:49:38.571Z,1.07
2023-07-22T14:52:06.633Z,1.17
2023-07-22T14:54:35.182Z,1.00
2023-07-22T14:57:02.968Z,1.50
2023-07-22T14:59:30.689Z,1.58
2023-07-22T15:02:00.521Z,1.00
2023-07-22T15:04:30.004Z,1.30
2023-07-22T15:06:58.602Z,1.30
2023-07-22T15:09:26.753Z,1.38
2023-07-22T15:11:54.458Z,1.52
2023-07-22T15:14:22.870Z,1.50
2023-07-22T15:16:56.209Z,1.20
2023-07-22T15:19:26.147Z,1.20
2023-07-22T15:21:54.424Z,1.42
2023-07-22T15:24:22.201Z,1.33
2023-07-22T15:26:49.973Z,1.33
2023-07-22T15:29:17.558Z,1.60
2023-07-22T15:31:45.523Z,1.30
2023-07-22T15:34:13.410Z,1.45
2023-07-22T15:36:41.029Z,1.05
2023-07-22T15:39:10.133Z,1.13
2023-07-22T15:41:37.795Z,1.45
2023-07-22T15:44:05.587Z,1.60
2023-07-22T15:46:33.356Z,1.02
2023-07-22T15:49:01.922Z,1.42
2023-07-22T15:51:29.868Z,1.47
2023-07-22T15:53:57.716Z,1.00
2023-07-22T15:56:26.003Z,1.00
2023-07-22T15:58:53.939Z,1.50
2023-07-22T16:01:21.874Z,1.30
2023-07-22T16:03:49.622Z,1.10
2023-07-22T16:06:30.736Z,1.00
2023-07-22T16:09:00.039Z,1.10
2023-07-22T16:11:29.229Z,1.13
2023-07-22T16:13:57.296Z,1.00
2023-07-22T16:16:24.991Z,1.00
2023-07-22T16:18:54.775Z,1.10
2023-07-22T16:21:22.614Z,1.25
2023-07-22T16:23:50.404Z,1.10
2023-07-22T16:26:18.083Z,1.40
2023-07-22T16:28:45.788Z,1.00
2023-07-22T16:31:13.454Z,1.10
2023-07-22T16:33:41.481Z,1.10
2023-07-22T16:36:09.288Z,1.20
2023-07-22T16:38:36.910Z,1.10
2023-07-22T16:41:04.762Z,1.10
2023-07-22T16:43:32.351Z,1.40
2023-07-22T16:46:00.051Z,1.20
2023-07-22T16:48:27.736Z,1.50
2023-07-22T16:50:55.503Z,1.77
2023-07-22T16:53:23.117Z,1.97
2023-07-22T16:55:50.764Z,1.65
2023-07-22T16:58:18.977Z,1.80
2023-07-22T17:00:49.545Z,1.20
2023-07-22T17:03:17.923Z,1.02
2023-07-22T17:05:45.764Z,1.43
2023-07-22T17:08:13.451Z,1.48
2023-07-22T17:10:41.124Z,1.92
2023-07-22T17:13:08.768Z,1.80
2023-07-22T17:15:49.604Z,1.20
2023-07-22T17:18:17.199Z,2.60
2023-07-22T17:20:44.840Z,2.38
2023-07-22T17:23:13.595Z,2.42
2023-07-22T17:25:41.556Z,2.67
2023-07-22T17:28:09.274Z,1.77
2023-07-22T17:30:37.032Z,1.93
2023-07-22T17:33:05.838Z,1.80
2023-07-22T17:35:35.654Z,3.13
2023-07-22T17:38:04.424Z,2.97
2023-07-22T17:40:32.690Z,3.30
2023-07-22T17:43:00.528Z,2.63
2023-07-22T17:45:31.264Z,4.15
2023-07-22T17:47:59.040Z,4.50
2023-07-22T17:50:26.737Z,2.53
2023-07-22T17:52:54.450Z,0.90
2023-07-22T17:55:22.153Z,1.90
2023-07-22T17:57:49.764Z,1.83
2023-07-22T18:00:17.569Z,1.63
2023-07-22T18:02:46.232Z,1.88
2023-07-22T18:05:14.091Z,1.38
2023-07-22T18:07:42.472Z,1.60
2023-07-22T18:10:10.445Z,1.80
2023-07-22T18:12:38.162Z,1.50
2023-07-22T18:15:06.171Z,2.92
2023-07-22T18:17:35.726Z,1.30
2023-07-22T18:20:06.448Z,1.40
2023-07-22T18:22:36.419Z,1.38
2023-07-22T18:25:05.276Z,1.63
2023-07-22T18:27:33.969Z,1.50
2023-07-22T18:30:01.714Z,1.60
2023-07-22T18:32:32.918Z,1.47
2023-07-22T18:35:00.901Z,1.58
2023-07-22T18:37:29.100Z,1.40
2023-07-22T18:39:57.452Z,1.85
2023-07-22T18:42:25.285Z,1.15
2023-07-22T18:44:53.014Z,1.73
2023-07-22T18:47:20.695Z,0.90
2023-07-22T18:49:48.352Z,1.58
2023-07-22T18:52:16.068Z,1.70
2023-07-22T18:54:44.798Z,1.80
2023-07-22T18:57:12.613Z,2.23
2023-07-22T18:59:40.412Z,1.77
2023-07-22T19:02:08.182Z,2.08
2023-07-22T19:04:45.143Z,2.45
2023-07-22T19:07:16.165Z,3.60
2023-07-22T19:09:43.756Z,2.50
2023-07-22T19:12:11.461Z,1.70
2023-07-22T19:14:39.196Z,1.50
2023-07-22T19:17:07.085Z,1.50
2023-07-22T19:19:34.730Z,1.48
2023-07-22T19:22:02.420Z,1.50
2023-07-22T19:24:30.093Z,1.60
2023-07-22T19:26:57.831Z,1.50
2023-07-22T19:29:25.599Z,1.60
2023-07-22T19:31:53.364Z,1.40
2023-07-22T19:34:21.211Z,1.40
2023-07-22T19:36:48.973Z,1.40
2023-07-22T19:39:16.650Z,1.52
2023-07-22T19:41:46.952Z,1.65
2023-07-22T19:44:19.866Z,1.63
2023-07-22T19:46:47.477Z,1.60
2023-07-22T19:49:15.421Z,1.75
2023-07-22T19:51:43.077Z,1.48
2023-07-22T19:54:10.803Z,1.50
2023-07-22T19:56:38.504Z,1.50
2023-07-22T19:59:09.846Z,1.73
2023-07-22T20:01:37.510Z,1.50
2023-07-22T20:04:05.192Z,1.35
2023-07-22T20:06:33.020Z,1.55
2023-07-22T20:09:00.882Z,1.60
2023-07-22T20:11:28.718Z,1.47
2023-07-22T20:13:57.130Z,3.35
2023-07-22T20:16:25.049Z,1.67
2023-07-22T20:18:52.635Z,1.67
2023-07-22T20:21:20.830Z,1.55
2023-07-22T20:23:52.041Z,1.80
2023-07-22T20:26:19.897Z,1.85
2023-07-22T20:28:47.624Z,1.33
2023-07-22T20:31:15.612Z,1.20
2023-07-22T20:33:43.472Z,2.08
2023-07-22T20:36:11.937Z,2.17
2023-07-22T20:38:40.081Z,3.35
2023-07-22T20:41:08.345Z,2.83
2023-07-22T20:43:36.108Z,2.10
2023-07-22T20:46:07.332Z,2.90
2023-07-22T20:48:35.004Z,2.90
2023-07-22T20:51:04.357Z,1.95
2023-07-22T20:53:32.211Z,1.70
2023-07-22T20:56:00.968Z,2.00
2023-07-22T20:58:30.397Z,2.15
2023-07-22T21:01:02.396Z,2.00
2023-07-22T21:03:30.426Z,1.90
2023-07-22T21:05:59.672Z,2.13
2023-07-22T21:08:29.755Z,2.00
2023-07-22T21:10:59.098Z,1.75
2023-07-22T21:13:28.090Z,1.50
2023-07-22T21:15:55.747Z,1.63
2023-07-22T21:18:23.394Z,1.60
2023-07-22T21:20:51.049Z,1.85
2023-07-22T21:23:18.914Z,1.42
2023-07-22T21:25:46.653Z,1.67
2023-07-22T21:28:15.773Z,1.70
2023-07-22T21:30:44.829Z,1.75
2023-07-22T21:33:12.737Z,1.85
2023-07-22T21:35:40.434Z,1.60
2023-07-22T21:38:08.101Z,1.60
2023-07-22T21:40:35.885Z,1.60
2023-07-22T21:43:03.935Z,1.52
2023-07-22T21:45:31.580Z,1.73
2023-07-22T21:47:59.331Z,1.77
2023-07-22T21:50:26.990Z,1.73
2023-07-22T21:52:56.724Z,1.48
2023-07-22T21:55:26.379Z,1.38
2023-07-22T21:57:54.096Z,1.73
2023-07-22T22:00:21.846Z,1.60
2023-07-22T22:02:49.592Z,1.10
2023-07-22T22:05:17.294Z,1.35
2023-07-22T22:07:46.378Z,1.45
2023-07-22T22:10:15.239Z,1.48
2023-07-22T22:12:42.843Z,1.35
2023-07-22T22:15:10.935Z,1.30
2023-07-22T22:17:58.453Z,1.20
2023-07-22T22:20:27.421Z,1.52
2023-07-22T22:22:55.212Z,1.38
2023-07-22T22:25:23.127Z,1.30
2023-07-22T22:27:51.701Z,1.13
2023-07-22T22:30:19.392Z,1.23
2023-07-22T22:32:47.393Z,1.33
2023-07-22T22:35:15.064Z,1.52
2023-07-22T22:37:42.854Z,1.30
2023-07-22T22:40:10.721Z,0.80
2023-07-22T22:42:38.394Z,1.60
2023-07-22T22:45:06.599Z,1.40
2023-07-22T22:47:34.436Z,1.50
2023-07-22T22:50:02.130Z,1.50
2023-07-22T22:52:34.571Z,1.27
2023-07-22T22:55:03.330Z,1.90
2023-07-22T22:57:32.413Z,1.80
2023-07-22T23:00:00.204Z,1.17
2023-07-22T23:02:28.307Z,0.80
2023-07-22T23:04:55.944Z,1.47
2023-07-22T23:07:23.570Z,1.40
2023-07-22T23:09:51.279Z,1.42
2023-07-22T23:12:18.923Z,1.38
2023-07-22T23:14:48.050Z,1.60
2023-07-22T23:17:15.923Z,1.17
2023-07-22T23:19:43.581Z,1.70
2023-07-22T23:22:11.415Z,1.60
2023-07-22T23:24:39.173Z,1.50
2023-07-22T23:27:07.345Z,1.40
2023-07-22T23:29:36.152Z,1.60
2023-07-22T23:32:04.331Z,1.73
2023-07-22T23:34:32.262Z,1.50
2023-07-22T23:36:59.924Z,1.70
2023-07-22T23:39:27.513Z,0.80
2023-07-22T23:41:55.144Z,1.20
2023-07-22T23:44:22.874Z,1.50
2023-07-22T23:46:50.493Z,1.45
2023-07-22T23:49:18.225Z,1.80
2023-07-22T23:51:45.959Z,1.70
2023-07-22T23:54:13.656Z,1.00
2023-07-22T23:56:41.322Z,1.30
2023-07-22T23:59:09.339Z,1.63
